sensor_id;sensor_type;location;lat;lon;timestamp;temperature;humidity
13223;DHT22;6676;45.192;5.722;2022-08-25T00:02:03;22.90;99.90
13223;DHT22;6676;45.192;5.722;2022-08-25T00:07:56;23.00;99.90
13223;DHT22;6676;45.192;5.722;2022-08-25T00:10:54;23.10;99.90
13223;DHT22;6676;45.192;5.722;2022-08-25T00:13:50;23.10;99.90
13223;DHT22;6676;45.192;5.722;2022-08-25T00:16:43;23.20;99.90
13223;DHT22;6676;45.192;5.722;2022-08-25T00:19:36;23.20;99.90
13223;DHT22;6676;45.192;5.722;2022-08-25T00:25:23;23.30;99.90
13223;DHT22;6676;45.192;5.722;2022-08-25T00:28:17;23.30;99.90
13223;DHT22;6676;45.192;5.722;2022-08-25T00:31:12;23.30;99.90
13223;DHT22;6676;45.192;5.722;2022-08-25T00:34:05;23.30;99.90
13223;DHT22;6676;45.192;5.722;2022-08-25T00:36:56;23.30;99.90
13223;DHT22;6676;45.192;5.722;2022-08-25T00:45:08;23.40;99.90
13223;DHT22;6676;45.192;5.722;2022-08-25T00:48:00;23.40;99.90
13223;DHT22;6676;45.192;5.722;2022-08-25T00:50:52;23.40;99.90
13223;DHT22;6676;45.192;5.722;2022-08-25T00:56:24;23.30;99.90
13223;DHT22;6676;45.192;5.722;2022-08-25T01:02:01;23.30;99.90
13223;DHT22;6676;45.192;5.722;2022-08-25T01:04:55;23.20;99.90
13223;DHT22;6676;45.192;5.722;2022-08-25T01:07:47;23.20;99.90
13223;DHT22;6676;45.192;5.722;2022-08-25T01:13:21;23.10;99.90
13223;DHT22;6676;45.192;5.722;2022-08-25T01:16:15;23.10;99.90
13223;DHT22;6676;45.192;5.722;2022-08-25T01:19:08;23.00;99.90
13223;DHT22;6676;45.192;5.722;2022-08-25T01:22:03;23.00;99.90
13223;DHT22;6676;45.192;5.722;2022-08-25T01:24:58;23.00;99.90
13223;DHT22;6676;45.192;5.722;2022-08-25T01:27:51;23.00;99.90
13223;DHT22;6676;45.192;5.722;2022-08-25T01:30:43;23.10;99.90
13223;DHT22;6676;45.192;5.722;2022-08-25T01:33:34;23.10;99.90
13223;DHT22;6676;45.192;5.722;2022-08-25T01:36:27;23.10;99.90
13223;DHT22;6676;45.192;5.722;2022-08-25T01:39:19;23.00;99.90
13223;DHT22;6676;45.192;5.722;2022-08-25T01:44:57;22.90;99.90
13223;DHT22;6676;45.192;5.722;2022-08-25T01:50:29;22.90;99.90
13223;DHT22;6676;45.192;5.722;2022-08-25T01:53:22;22.80;99.90
13223;DHT22;6676;45.192;5.722;2022-08-25T01:56:16;22.80;99.90
13223;DHT22;6676;45.192;5.722;2022-08-25T01:59:08;22.70;99.90
13223;DHT22;6676;45.192;5.722;2022-08-25T02:02:15;22.60;99.90
13223;DHT22;6676;45.192;5.722;2022-08-25T02:07:46;22.50;99.90
13223;DHT22;6676;45.192;5.722;2022-08-25T02:10:44;22.50;99.90
13223;DHT22;6676;45.192;5.722;2022-08-25T02:16:18;22.40;99.90
13223;DHT22;6676;45.192;5.722;2022-08-25T02:19:11;22.40;99.90
13223;DHT22;6676;45.192;5.722;2022-08-25T02:22:03;22.30;99.90
13223;DHT22;6676;45.192;5.722;2022-08-25T02:27:34;22.40;99.90
13223;DHT22;6676;45.192;5.722;2022-08-25T02:30:27;22.40;99.90
13223;DHT22;6676;45.192;5.722;2022-08-25T02:33:18;22.40;99.90
13223;DHT22;6676;45.192;5.722;2022-08-25T02:36:10;22.40;99.90
13223;DHT22;6676;45.192;5.722;2022-08-25T02:39:02;22.40;99.90
13223;DHT22;6676;45.192;5.722;2022-08-25T02:44:34;22.20;99.90
13223;DHT22;6676;45.192;5.722;2022-08-25T02:50:11;22.20;99.90
13223;DHT22;6676;45.192;5.722;2022-08-25T02:53:03;22.20;99.90
13223;DHT22;6676;45.192;5.722;2022-08-25T02:55:55;22.20;99.90
13223;DHT22;6676;45.192;5.722;2022-08-25T02:58:47;22.10;99.90
13223;DHT22;6676;45.192;5.722;2022-08-25T03:01:38;22.10;99.90
13223;DHT22;6676;45.192;5.722;2022-08-25T03:04:29;22.20;99.90
13223;DHT22;6676;45.192;5.722;2022-08-25T03:10:04;22.10;99.90
13223;DHT22;6676;45.192;5.722;2022-08-25T03:12:55;22.10;99.90
13223;DHT22;6676;45.192;5.722;2022-08-25T03:15:46;22.10;99.90
13223;DHT22;6676;45.192;5.722;2022-08-25T03:18:39;22.10;99.90
13223;DHT22;6676;45.192;5.722;2022-08-25T03:21:33;22.10;99.90
13223;DHT22;6676;45.192;5.722;2022-08-25T03:27:04;22.10;99.90
13223;DHT22;6676;45.192;5.722;2022-08-25T03:29:56;22.10;99.90
13223;DHT22;6676;45.192;5.722;2022-08-25T03:35:26;21.90;99.90
13223;DHT22;6676;45.192;5.722;2022-08-25T03:40:59;21.80;99.90
13223;DHT22;6676;45.192;5.722;2022-08-25T03:43:50;21.80;99.90
13223;DHT22;6676;45.192;5.722;2022-08-25T03:46:45;21.90;99.90
13223;DHT22;6676;45.192;5.722;2022-08-25T03:49:37;21.90;99.90
13223;DHT22;6676;45.192;5.722;2022-08-25T03:55:10;21.90;99.90
13223;DHT22;6676;45.192;5.722;2022-08-25T03:58:02;21.90;99.90
13223;DHT22;6676;45.192;5.722;2022-08-25T04:00:53;21.90;99.90
13223;DHT22;6676;45.192;5.722;2022-08-25T04:03:47;21.90;99.90
13223;DHT22;6676;45.192;5.722;2022-08-25T04:06:39;21.80;99.90
13223;DHT22;6676;45.192;5.722;2022-08-25T04:09:31;21.70;99.90
13223;DHT22;6676;45.192;5.722;2022-08-25T04:15:04;21.70;99.90
13223;DHT22;6676;45.192;5.722;2022-08-25T04:20:35;21.60;99.90
13223;DHT22;6676;45.192;5.722;2022-08-25T04:23:28;21.60;99.90
13223;DHT22;6676;45.192;5.722;2022-08-25T04:26:31;21.60;99.90
13223;DHT22;6676;45.192;5.722;2022-08-25T04:29:24;21.60;99.90
13223;DHT22;6676;45.192;5.722;2022-08-25T04:32:16;21.60;99.90
13223;DHT22;6676;45.192;5.722;2022-08-25T04:35:16;21.60;99.90
13223;DHT22;6676;45.192;5.722;2022-08-25T04:38:08;21.60;99.90
13223;DHT22;6676;45.192;5.722;2022-08-25T04:41:01;21.60;99.90
13223;DHT22;6676;45.192;5.722;2022-08-25T04:43:54;21.50;99.90
13223;DHT22;6676;45.192;5.722;2022-08-25T04:46:46;21.50;99.90
13223;DHT22;6676;45.192;5.722;2022-08-25T04:49:38;21.40;99.90
13223;DHT22;6676;45.192;5.722;2022-08-25T04:52:30;21.40;99.90
13223;DHT22;6676;45.192;5.722;2022-08-25T04:55:21;21.50;99.90
13223;DHT22;6676;45.192;5.722;2022-08-25T04:58:20;21.50;99.90
13223;DHT22;6676;45.192;5.722;2022-08-25T05:01:14;21.50;99.90
13223;DHT22;6676;45.192;5.722;2022-08-25T05:04:09;21.40;99.90
13223;DHT22;6676;45.192;5.722;2022-08-25T05:07:03;21.40;99.90
13223;DHT22;6676;45.192;5.722;2022-08-25T05:12:33;21.40;99.90
13223;DHT22;6676;45.192;5.722;2022-08-25T05:15:27;21.40;99.90
13223;DHT22;6676;45.192;5.722;2022-08-25T05:18:38;21.40;99.90
13223;DHT22;6676;45.192;5.722;2022-08-25T05:21:29;21.50;99.90
13223;DHT22;6676;45.192;5.722;2022-08-25T05:24:22;21.50;99.90
13223;DHT22;6676;45.192;5.722;2022-08-25T05:29:54;21.40;99.90
13223;DHT22;6676;45.192;5.722;2022-08-25T05:32:48;21.30;99.90
13223;DHT22;6676;45.192;5.722;2022-08-25T05:38:20;21.40;99.90
13223;DHT22;6676;45.192;5.722;2022-08-25T05:41:13;21.40;99.90
13223;DHT22;6676;45.192;5.722;2022-08-25T05:44:05;21.40;99.90
13223;DHT22;6676;45.192;5.722;2022-08-25T05:46:58;21.40;99.90
13223;DHT22;6676;45.192;5.722;2022-08-25T05:49:50;21.40;99.90
13223;DHT22;6676;45.192;5.722;2022-08-25T05:52:42;21.50;99.90
13223;DHT22;6676;45.192;5.722;2022-08-25T05:58:15;21.60;99.90
13223;DHT22;6676;45.192;5.722;2022-08-25T06:01:06;21.60;99.90
13223;DHT22;6676;45.192;5.722;2022-08-25T06:04:17;21.60;99.90
13223;DHT22;6676;45.192;5.722;2022-08-25T06:10:01;21.70;99.90
13223;DHT22;6676;45.192;5.722;2022-08-25T06:12:56;21.80;99.90
13223;DHT22;6676;45.192;5.722;2022-08-25T06:15:58;21.90;99.90
13223;DHT22;6676;45.192;5.722;2022-08-25T06:18:52;21.90;99.90
13223;DHT22;6676;45.192;5.722;2022-08-25T06:21:44;22.00;99.90
13223;DHT22;6676;45.192;5.722;2022-08-25T06:24:36;22.10;99.90
13223;DHT22;6676;45.192;5.722;2022-08-25T06:30:10;22.10;99.90
13223;DHT22;6676;45.192;5.722;2022-08-25T06:33:05;22.20;99.90
13223;DHT22;6676;45.192;5.722;2022-08-25T06:35:57;22.10;99.90
13223;DHT22;6676;45.192;5.722;2022-08-25T06:38:50;22.20;99.90
13223;DHT22;6676;45.192;5.722;2022-08-25T06:41:44;22.20;99.90
13223;DHT22;6676;45.192;5.722;2022-08-25T06:47:19;22.40;99.90
13223;DHT22;6676;45.192;5.722;2022-08-25T06:50:18;22.40;99.90
13223;DHT22;6676;45.192;5.722;2022-08-25T06:53:11;22.40;99.90
13223;DHT22;6676;45.192;5.722;2022-08-25T06:56:07;22.50;99.90
13223;DHT22;6676;45.192;5.722;2022-08-25T06:59:00;22.70;99.90
13223;DHT22;6676;45.192;5.722;2022-08-25T07:01:52;22.60;99.90
13223;DHT22;6676;45.192;5.722;2022-08-25T07:07:24;22.70;99.90
13223;DHT22;6676;45.192;5.722;2022-08-25T07:10:17;22.80;99.90
13223;DHT22;6676;45.192;5.722;2022-08-25T07:15:55;23.00;99.90
13223;DHT22;6676;45.192;5.722;2022-08-25T07:18:47;23.10;99.90
13223;DHT22;6676;45.192;5.722;2022-08-25T07:21:41;23.10;99.90
13223;DHT22;6676;45.192;5.722;2022-08-25T07:24:35;23.10;99.90
13223;DHT22;6676;45.192;5.722;2022-08-25T07:27:30;23.20;99.90
13223;DHT22;6676;45.192;5.722;2022-08-25T07:30:21;23.30;99.90
13223;DHT22;6676;45.192;5.722;2022-08-25T07:33:13;23.30;99.90
13223;DHT22;6676;45.192;5.722;2022-08-25T07:38:52;23.40;99.90
13223;DHT22;6676;45.192;5.722;2022-08-25T07:41:53;23.50;99.90
13223;DHT22;6676;45.192;5.722;2022-08-25T07:44:44;23.60;99.90
13223;DHT22;6676;45.192;5.722;2022-08-25T07:47:36;23.60;99.90
13223;DHT22;6676;45.192;5.722;2022-08-25T07:53:09;23.80;99.90
13223;DHT22;6676;45.192;5.722;2022-08-25T07:58:41;24.00;99.90
13223;DHT22;6676;45.192;5.722;2022-08-25T08:01:40;24.00;99.90
13223;DHT22;6676;45.192;5.722;2022-08-25T08:04:32;24.10;99.90
13223;DHT22;6676;45.192;5.722;2022-08-25T08:07:26;24.10;99.90
13223;DHT22;6676;45.192;5.722;2022-08-25T08:10:21;24.20;99.90
13223;DHT22;6676;45.192;5.722;2022-08-25T08:13:22;24.40;99.90
13223;DHT22;6676;45.192;5.722;2022-08-25T08:16:17;24.40;99.90
13223;DHT22;6676;45.192;5.722;2022-08-25T08:19:21;24.50;99.90
13223;DHT22;6676;45.192;5.722;2022-08-25T08:22:14;24.60;99.90
13223;DHT22;6676;45.192;5.722;2022-08-25T08:25:13;24.70;99.90
13223;DHT22;6676;45.192;5.722;2022-08-25T08:28:21;24.80;99.90
13223;DHT22;6676;45.192;5.722;2022-08-25T08:31:14;24.90;99.90
13223;DHT22;6676;45.192;5.722;2022-08-25T08:34:07;25.00;99.90
13223;DHT22;6676;45.192;5.722;2022-08-25T08:37:04;25.10;99.90
13223;DHT22;6676;45.192;5.722;2022-08-25T08:39:57;25.10;99.90
13223;DHT22;6676;45.192;5.722;2022-08-25T08:45:51;25.30;99.90
13223;DHT22;6676;45.192;5.722;2022-08-25T08:48:52;25.40;99.90
13223;DHT22;6676;45.192;5.722;2022-08-25T08:51:49;25.50;99.90
13223;DHT22;6676;45.192;5.722;2022-08-25T08:54:41;25.50;99.90
13223;DHT22;6676;45.192;5.722;2022-08-25T09:00:14;25.70;99.90
13223;DHT22;6676;45.192;5.722;2022-08-25T09:03:16;25.80;99.90
13223;DHT22;6676;45.192;5.722;2022-08-25T09:06:19;25.80;99.90
13223;DHT22;6676;45.192;5.722;2022-08-25T09:09:14;25.90;99.90
13223;DHT22;6676;45.192;5.722;2022-08-25T09:12:11;26.10;99.90
13223;DHT22;6676;45.192;5.722;2022-08-25T09:15:12;26.20;99.90
13223;DHT22;6676;45.192;5.722;2022-08-25T09:20:58;26.30;99.90
13223;DHT22;6676;45.192;5.722;2022-08-25T09:24:00;26.40;99.90
13223;DHT22;6676;45.192;5.722;2022-08-25T09:26:57;26.40;99.90
13223;DHT22;6676;45.192;5.722;2022-08-25T09:29:57;26.50;99.90
13223;DHT22;6676;45.192;5.722;2022-08-25T09:35:29;26.50;99.90
13223;DHT22;6676;45.192;5.722;2022-08-25T09:38:21;26.60;99.90
13223;DHT22;6676;45.192;5.722;2022-08-25T09:41:14;26.70;99.90
13223;DHT22;6676;45.192;5.722;2022-08-25T09:44:16;26.80;99.90
13223;DHT22;6676;45.192;5.722;2022-08-25T09:47:20;26.90;99.90
13223;DHT22;6676;45.192;5.722;2022-08-25T09:50:21;27.00;99.90
13223;DHT22;6676;45.192;5.722;2022-08-25T09:53:17;27.00;99.90
13223;DHT22;6676;45.192;5.722;2022-08-25T09:56:18;27.20;99.90
13223;DHT22;6676;45.192;5.722;2022-08-25T09:59:21;27.20;99.90
13223;DHT22;6676;45.192;5.722;2022-08-25T10:02:21;27.20;99.90
13223;DHT22;6676;45.192;5.722;2022-08-25T10:05:24;27.40;99.90
13223;DHT22;6676;45.192;5.722;2022-08-25T10:11:09;27.50;99.90
13223;DHT22;6676;45.192;5.722;2022-08-25T10:14:03;27.50;99.90
13223;DHT22;6676;45.192;5.722;2022-08-25T10:19:51;27.70;99.90
13223;DHT22;6676;45.192;5.722;2022-08-25T10:22:44;27.80;99.90
13223;DHT22;6676;45.192;5.722;2022-08-25T10:28:28;28.00;99.90
13223;DHT22;6676;45.192;5.722;2022-08-25T10:31:22;28.20;99.90
13223;DHT22;6676;45.192;5.722;2022-08-25T10:34:23;28.20;99.90
13223;DHT22;6676;45.192;5.722;2022-08-25T10:37:20;28.20;99.90
13223;DHT22;6676;45.192;5.722;2022-08-25T10:40:18;28.20;99.90
13223;DHT22;6676;45.192;5.722;2022-08-25T10:45:50;28.30;99.90
13223;DHT22;6676;45.192;5.722;2022-08-25T10:49:04;28.40;99.90
13223;DHT22;6676;45.192;5.722;2022-08-25T10:52:02;28.40;99.90
13223;DHT22;6676;45.192;5.722;2022-08-25T10:55:00;28.60;99.90
13223;DHT22;6676;45.192;5.722;2022-08-25T10:57:53;28.60;99.90
13223;DHT22;6676;45.192;5.722;2022-08-25T11:00:49;28.80;99.90
13223;DHT22;6676;45.192;5.722;2022-08-25T11:03:46;28.80;99.90
13223;DHT22;6676;45.192;5.722;2022-08-25T11:09:23;29.00;99.90
13223;DHT22;6676;45.192;5.722;2022-08-25T11:12:24;29.20;99.90
13223;DHT22;6676;45.192;5.722;2022-08-25T11:15:14;29.20;99.90
13223;DHT22;6676;45.192;5.722;2022-08-25T11:18:07;29.40;99.90
13223;DHT22;6676;45.192;5.722;2022-08-25T11:21:11;29.60;99.90
13223;DHT22;6676;45.192;5.722;2022-08-25T11:24:28;29.70;99.90
13223;DHT22;6676;45.192;5.722;2022-08-25T11:33:17;30.00;99.90
13223;DHT22;6676;45.192;5.722;2022-08-25T11:38:56;30.30;99.90
13223;DHT22;6676;45.192;5.722;2022-08-25T11:41:56;30.40;99.90
13223;DHT22;6676;45.192;5.722;2022-08-25T11:44:53;30.60;99.90
13223;DHT22;6676;45.192;5.722;2022-08-25T11:50:36;30.70;99.90
13223;DHT22;6676;45.192;5.722;2022-08-25T11:53:31;30.70;99.90
13223;DHT22;6676;45.192;5.722;2022-08-25T11:56:34;30.60;99.90
13223;DHT22;6676;45.192;5.722;2022-08-25T12:00:03;30.70;99.90
13223;DHT22;6676;45.192;5.722;2022-08-25T12:02:56;30.70;99.90
13223;DHT22;6676;45.192;5.722;2022-08-25T12:06:14;30.70;99.90
13223;DHT22;6676;45.192;5.722;2022-08-25T12:12:28;30.90;99.90
13223;DHT22;6676;45.192;5.722;2022-08-25T12:15:22;31.10;99.80
13223;DHT22;6676;45.192;5.722;2022-08-25T12:18:19;31.20;98.90
13223;DHT22;6676;45.192;5.722;2022-08-25T12:21:13;31.30;98.60
13223;DHT22;6676;45.192;5.722;2022-08-25T12:24:11;31.10;98.40
13223;DHT22;6676;45.192;5.722;2022-08-25T12:27:05;31.30;98.00
13223;DHT22;6676;45.192;5.722;2022-08-25T12:35:52;31.50;97.60
13223;DHT22;6676;45.192;5.722;2022-08-25T12:38:54;31.60;97.20
13223;DHT22;6676;45.192;5.722;2022-08-25T12:41:56;31.60;95.00
13223;DHT22;6676;45.192;5.722;2022-08-25T12:45:06;31.60;95.00
13223;DHT22;6676;45.192;5.722;2022-08-25T12:50:39;31.60;90.80
13223;DHT22;6676;45.192;5.722;2022-08-25T12:53:40;31.60;90.60
13223;DHT22;6676;45.192;5.722;2022-08-25T12:56:34;31.70;90.50
13223;DHT22;6676;45.192;5.722;2022-08-25T13:06:10;31.90;80.30
13223;DHT22;6676;45.192;5.722;2022-08-25T13:09:28;31.90;81.00
13223;DHT22;6676;45.192;5.722;2022-08-25T13:15:33;32.10;77.50
13223;DHT22;6676;45.192;5.722;2022-08-25T13:18:34;32.20;78.60
13223;DHT22;6676;45.192;5.722;2022-08-25T13:21:32;32.20;77.60
13223;DHT22;6676;45.192;5.722;2022-08-25T13:24:27;32.20;76.90
13223;DHT22;6676;45.192;5.722;2022-08-25T13:30:04;32.30;77.00
13223;DHT22;6676;45.192;5.722;2022-08-25T13:33:17;32.30;76.80
13223;DHT22;6676;45.192;5.722;2022-08-25T13:36:14;32.50;76.90
13223;DHT22;6676;45.192;5.722;2022-08-25T13:39:24;32.40;78.40
13223;DHT22;6676;45.192;5.722;2022-08-25T13:42:23;32.50;78.50
13223;DHT22;6676;45.192;5.722;2022-08-25T13:45:22;32.50;78.20
13223;DHT22;6676;45.192;5.722;2022-08-25T13:48:30;32.40;77.80
13223;DHT22;6676;45.192;5.722;2022-08-25T13:51:19;32.50;78.10
13223;DHT22;6676;45.192;5.722;2022-08-25T13:54:21;32.40;76.70
13223;DHT22;6676;45.192;5.722;2022-08-25T13:57:15;32.50;78.30
13223;DHT22;6676;45.192;5.722;2022-08-25T14:00:11;32.60;77.60
13223;DHT22;6676;45.192;5.722;2022-08-25T14:05:43;32.80;75.20
13223;DHT22;6676;45.192;5.722;2022-08-25T14:08:45;33.10;75.90
13223;DHT22;6676;45.192;5.722;2022-08-25T14:11:45;33.80;74.20
13223;DHT22;6676;45.192;5.722;2022-08-25T14:14:39;34.20;73.80
13223;DHT22;6676;45.192;5.722;2022-08-25T14:17:32;34.60;73.30
13223;DHT22;6676;45.192;5.722;2022-08-25T14:20:28;34.90;71.70
13223;DHT22;6676;45.192;5.722;2022-08-25T14:29:12;35.60;70.00
13223;DHT22;6676;45.192;5.722;2022-08-25T14:32:17;35.60;69.80
13223;DHT22;6676;45.192;5.722;2022-08-25T14:35:09;35.70;69.20
13223;DHT22;6676;45.192;5.722;2022-08-25T14:38:07;35.90;68.70
13223;DHT22;6676;45.192;5.722;2022-08-25T14:40:59;35.80;68.80
13223;DHT22;6676;45.192;5.722;2022-08-25T14:43:51;36.10;68.70
13223;DHT22;6676;45.192;5.722;2022-08-25T14:46:52;36.20;68.10
13223;DHT22;6676;45.192;5.722;2022-08-25T14:49:53;36.30;67.80
13223;DHT22;6676;45.192;5.722;2022-08-25T14:52:46;36.40;67.70
13223;DHT22;6676;45.192;5.722;2022-08-25T14:55:39;36.20;67.60
13223;DHT22;6676;45.192;5.722;2022-08-25T14:58:30;36.20;67.20
13223;DHT22;6676;45.192;5.722;2022-08-25T15:01:23;36.20;67.00
13223;DHT22;6676;45.192;5.722;2022-08-25T15:04:19;36.30;67.30
13223;DHT22;6676;45.192;5.722;2022-08-25T15:07:12;36.30;66.00
13223;DHT22;6676;45.192;5.722;2022-08-25T15:10:22;36.10;66.10
13223;DHT22;6676;45.192;5.722;2022-08-25T15:15:55;36.10;66.60
13223;DHT22;6676;45.192;5.722;2022-08-25T15:18:56;36.30;66.10
13223;DHT22;6676;45.192;5.722;2022-08-25T15:21:48;36.40;65.80
13223;DHT22;6676;45.192;5.722;2022-08-25T15:24:40;36.30;65.30
13223;DHT22;6676;45.192;5.722;2022-08-25T15:30:13;36.50;64.40
13223;DHT22;6676;45.192;5.722;2022-08-25T15:33:15;36.30;65.00
13223;DHT22;6676;45.192;5.722;2022-08-25T15:36:13;36.30;65.50
13223;DHT22;6676;45.192;5.722;2022-08-25T15:39:07;36.40;65.70
13223;DHT22;6676;45.192;5.722;2022-08-25T15:41:58;36.80;65.80
13223;DHT22;6676;45.192;5.722;2022-08-25T15:50:12;37.60;63.60
13223;DHT22;6676;45.192;5.722;2022-08-25T15:53:03;37.50;63.20
13223;DHT22;6676;45.192;5.722;2022-08-25T15:55:56;37.80;62.30
13223;DHT22;6676;45.192;5.722;2022-08-25T16:01:28;37.50;61.60
13223;DHT22;6676;45.192;5.722;2022-08-25T16:04:22;37.90;61.60
13223;DHT22;6676;45.192;5.722;2022-08-25T16:07:28;38.30;61.00
13223;DHT22;6676;45.192;5.722;2022-08-25T16:10:19;38.00;61.00
13223;DHT22;6676;45.192;5.722;2022-08-25T16:15:51;38.30;60.70
13223;DHT22;6676;45.192;5.722;2022-08-25T16:18:44;38.20;60.50
13223;DHT22;6676;45.192;5.722;2022-08-25T16:24:18;38.70;59.20
13223;DHT22;6676;45.192;5.722;2022-08-25T16:27:12;38.40;59.10
13223;DHT22;6676;45.192;5.722;2022-08-25T16:30:27;38.00;59.70
13223;DHT22;6676;45.192;5.722;2022-08-25T16:33:36;37.20;61.00
13223;DHT22;6676;45.192;5.722;2022-08-25T16:36:28;37.10;60.90
13223;DHT22;6676;45.192;5.722;2022-08-25T16:39:20;36.80;61.90
13223;DHT22;6676;45.192;5.722;2022-08-25T16:42:13;36.70;62.20
13223;DHT22;6676;45.192;5.722;2022-08-25T16:45:06;37.00;62.20
13223;DHT22;6676;45.192;5.722;2022-08-25T16:50:39;36.90;62.40
13223;DHT22;6676;45.192;5.722;2022-08-25T16:53:30;37.10;62.30
13223;DHT22;6676;45.192;5.722;2022-08-25T16:56:39;36.90;61.80
13223;DHT22;6676;45.192;5.722;2022-08-25T16:59:32;36.60;62.50
13223;DHT22;6676;45.192;5.722;2022-08-25T17:05:05;35.00;65.60
13223;DHT22;6676;45.192;5.722;2022-08-25T17:08:07;34.30;67.10
13223;DHT22;6676;45.192;5.722;2022-08-25T17:11:20;33.80;68.70
13223;DHT22;6676;45.192;5.722;2022-08-25T17:14:15;33.30;69.40
13223;DHT22;6676;45.192;5.722;2022-08-25T17:17:10;33.20;69.90
13223;DHT22;6676;45.192;5.722;2022-08-25T17:20:05;32.90;70.20
13223;DHT22;6676;45.192;5.722;2022-08-25T17:25:37;32.70;71.20
13223;DHT22;6676;45.192;5.722;2022-08-25T17:28:30;32.50;71.80
13223;DHT22;6676;45.192;5.722;2022-08-25T17:34:07;32.30;73.10
13223;DHT22;6676;45.192;5.722;2022-08-25T17:36:58;32.10;73.90
13223;DHT22;6676;45.192;5.722;2022-08-25T17:39:51;32.00;74.30
13223;DHT22;6676;45.192;5.722;2022-08-25T17:42:45;31.80;75.70
13223;DHT22;6676;45.192;5.722;2022-08-25T17:45:39;31.80;75.90
13223;DHT22;6676;45.192;5.722;2022-08-25T17:51:12;31.60;76.40
13223;DHT22;6676;45.192;5.722;2022-08-25T17:54:05;31.50;77.40
13223;DHT22;6676;45.192;5.722;2022-08-25T17:56:56;31.40;77.70
13223;DHT22;6676;45.192;5.722;2022-08-25T17:59:47;31.30;78.00
13223;DHT22;6676;45.192;5.722;2022-08-25T18:02:38;31.20;78.30
13223;DHT22;6676;45.192;5.722;2022-08-25T18:08:13;31.00;78.60
13223;DHT22;6676;45.192;5.722;2022-08-25T18:11:07;30.80;79.20
13223;DHT22;6676;45.192;5.722;2022-08-25T18:14:00;30.70;79.80
13223;DHT22;6676;45.192;5.722;2022-08-25T18:19:30;30.40;80.60
13223;DHT22;6676;45.192;5.722;2022-08-25T18:22:22;30.20;81.10
13223;DHT22;6676;45.192;5.722;2022-08-25T18:25:14;30.10;81.40
13223;DHT22;6676;45.192;5.722;2022-08-25T18:30:44;30.10;81.90
13223;DHT22;6676;45.192;5.722;2022-08-25T18:33:38;30.00;82.10
13223;DHT22;6676;45.192;5.722;2022-08-25T18:41:48;29.80;82.90
13223;DHT22;6676;45.192;5.722;2022-08-25T18:44:39;29.80;83.00
13223;DHT22;6676;45.192;5.722;2022-08-25T18:47:31;29.70;83.30
13223;DHT22;6676;45.192;5.722;2022-08-25T18:50:23;29.60;83.20
13223;DHT22;6676;45.192;5.722;2022-08-25T18:53:14;29.60;83.90
13223;DHT22;6676;45.192;5.722;2022-08-25T18:56:07;29.60;84.40
13223;DHT22;6676;45.192;5.722;2022-08-25T18:58:58;29.50;85.20
13223;DHT22;6676;45.192;5.722;2022-08-25T19:04:32;29.30;86.40
13223;DHT22;6676;45.192;5.722;2022-08-25T19:07:23;29.20;86.80
13223;DHT22;6676;45.192;5.722;2022-08-25T19:12:56;29.10;87.30
13223;DHT22;6676;45.192;5.722;2022-08-25T19:15:51;29.00;87.20
13223;DHT22;6676;45.192;5.722;2022-08-25T19:21:21;28.90;88.30
13223;DHT22;6676;45.192;5.722;2022-08-25T19:24:13;28.90;88.70
13223;DHT22;6676;45.192;5.722;2022-08-25T19:27:04;28.90;89.20
13223;DHT22;6676;45.192;5.722;2022-08-25T19:29:57;28.80;90.00
13223;DHT22;6676;45.192;5.722;2022-08-25T19:35:30;28.60;90.80
13223;DHT22;6676;45.192;5.722;2022-08-25T19:38:26;28.50;91.20
13223;DHT22;6676;45.192;5.722;2022-08-25T19:44:14;28.60;91.20
13223;DHT22;6676;45.192;5.722;2022-08-25T19:47:06;29.10;90.00
13223;DHT22;6676;45.192;5.722;2022-08-25T19:52:40;29.70;88.90
13223;DHT22;6676;45.192;5.722;2022-08-25T19:55:32;29.70;88.80
13223;DHT22;6676;45.192;5.722;2022-08-25T19:58:25;29.70;88.80
13223;DHT22;6676;45.192;5.722;2022-08-25T20:01:18;29.70;89.30
13223;DHT22;6676;45.192;5.722;2022-08-25T20:04:18;29.60;90.10
13223;DHT22;6676;45.192;5.722;2022-08-25T20:07:11;29.60;90.20
13223;DHT22;6676;45.192;5.722;2022-08-25T20:12:43;29.20;90.80
13223;DHT22;6676;45.192;5.722;2022-08-25T20:15:35;29.20;91.10
13223;DHT22;6676;45.192;5.722;2022-08-25T20:18:28;29.10;90.50
13223;DHT22;6676;45.192;5.722;2022-08-25T20:21:20;29.00;90.70
13223;DHT22;6676;45.192;5.722;2022-08-25T20:24:21;28.90;90.90
13223;DHT22;6676;45.192;5.722;2022-08-25T20:27:47;28.80;91.10
13223;DHT22;6676;45.192;5.722;2022-08-25T20:30:41;28.60;90.50
13223;DHT22;6676;45.192;5.722;2022-08-25T20:33:31;28.50;90.50
13223;DHT22;6676;45.192;5.722;2022-08-25T20:36:23;28.40;90.50
13223;DHT22;6676;45.192;5.722;2022-08-25T20:39:14;28.40;90.20
13223;DHT22;6676;45.192;5.722;2022-08-25T20:42:07;28.40;90.00
13223;DHT22;6676;45.192;5.722;2022-08-25T20:45:08;28.40;89.20
13223;DHT22;6676;45.192;5.722;2022-08-25T20:50:43;28.40;88.40
13223;DHT22;6676;45.192;5.722;2022-08-25T20:53:37;28.30;87.90
13223;DHT22;6676;45.192;5.722;2022-08-25T20:56:36;28.40;86.70
13223;DHT22;6676;45.192;5.722;2022-08-25T20:59:39;28.40;86.90
13223;DHT22;6676;45.192;5.722;2022-08-25T21:02:30;28.40;87.30
13223;DHT22;6676;45.192;5.722;2022-08-25T21:10:43;28.20;86.50
13223;DHT22;6676;45.192;5.722;2022-08-25T21:13:34;28.10;86.90
13223;DHT22;6676;45.192;5.722;2022-08-25T21:16:27;28.10;86.90
13223;DHT22;6676;45.192;5.722;2022-08-25T21:19:21;28.10;86.70
13223;DHT22;6676;45.192;5.722;2022-08-25T21:22:26;28.20;85.60
13223;DHT22;6676;45.192;5.722;2022-08-25T21:28:00;28.20;84.70
13223;DHT22;6676;45.192;5.722;2022-08-25T21:31:05;28.20;84.60
13223;DHT22;6676;45.192;5.722;2022-08-25T21:34:01;28.10;84.80
13223;DHT22;6676;45.192;5.722;2022-08-25T21:36:54;28.00;85.40
13223;DHT22;6676;45.192;5.722;2022-08-25T21:39:47;27.90;84.80
13223;DHT22;6676;45.192;5.722;2022-08-25T21:45:19;27.80;85.80
13223;DHT22;6676;45.192;5.722;2022-08-25T21:48:11;27.80;85.50
13223;DHT22;6676;45.192;5.722;2022-08-25T21:51:08;27.90;85.90
13223;DHT22;6676;45.192;5.722;2022-08-25T21:54:02;27.80;86.00
13223;DHT22;6676;45.192;5.722;2022-08-25T21:57:04;27.80;86.00
13223;DHT22;6676;45.192;5.722;2022-08-25T21:59:56;27.70;85.70
13223;DHT22;6676;45.192;5.722;2022-08-25T22:02:47;27.80;84.70
13223;DHT22;6676;45.192;5.722;2022-08-25T22:05:39;27.70;85.10
13223;DHT22;6676;45.192;5.722;2022-08-25T22:08:33;27.70;85.30
13223;DHT22;6676;45.192;5.722;2022-08-25T22:11:25;27.50;89.90
13223;DHT22;6676;45.192;5.722;2022-08-25T22:14:19;27.10;91.80
13223;DHT22;6676;45.192;5.722;2022-08-25T22:17:10;26.70;92.50
13223;DHT22;6676;45.192;5.722;2022-08-25T22:20:05;26.50;92.60
13223;DHT22;6676;45.192;5.722;2022-08-25T22:25:38;26.30;93.70
13223;DHT22;6676;45.192;5.722;2022-08-25T22:31:17;26.20;94.50
13223;DHT22;6676;45.192;5.722;2022-08-25T22:34:09;26.20;94.80
13223;DHT22;6676;45.192;5.722;2022-08-25T22:37:05;26.00;95.30
13223;DHT22;6676;45.192;5.722;2022-08-25T22:39:56;25.80;95.90
13223;DHT22;6676;45.192;5.722;2022-08-25T22:45:26;25.70;96.20
13223;DHT22;6676;45.192;5.722;2022-08-25T22:48:17;25.70;96.70